createdAt,value
2017-11-30T00:02:24.104Z,1.98
2017-11-30T00:08:28.466Z,1.92
2017-11-30T00:14:32.203Z,1.93
2017-11-30T00:20:35.774Z,2.05
2017-11-30T00:26:39.388Z,2.15
2017-11-30T00:32:42.930Z,2.08
2017-11-30T00:38:46.473Z,1.98
2017-11-30T00:44:50.229Z,2.01
2017-11-30T00:50:54.287Z,1.95
2017-11-30T00:56:57.875Z,1.84
2017-11-30T01:03:01.390Z,1.79
2017-11-30T01:09:05.103Z,1.70
2017-11-30T01:15:08.608Z,1.67
2017-11-30T01:21:28.803Z,1.74
2017-11-30T01:27:32.311Z,1.62
2017-11-30T01:33:36.624Z,1.47
2017-11-30T01:39:40.152Z,1.44
2017-11-30T01:45:43.699Z,1.45
2017-11-30T01:51:48.074Z,1.40
2017-11-30T01:57:52.595Z,1.38
2017-11-30T02:03:56.284Z,1.37
2017-11-30T02:09:59.905Z,1.34
2017-11-30T02:16:03.416Z,1.28
2017-11-30T02:22:07.792Z,1.26
2017-11-30T02:28:12.084Z,1.17
2017-11-30T02:34:15.744Z,1.06
2017-11-30T02:40:19.311Z,1.10
2017-11-30T02:46:22.831Z,1.05
2017-11-30T02:52:27.445Z,0.92
2017-11-30T02:58:31.234Z,0.88
2017-11-30T03:04:34.760Z,0.99
2017-11-30T03:10:39.078Z,1.20
2017-11-30T03:16:42.616Z,1.29
2017-11-30T03:22:46.250Z,1.32
2017-11-30T03:28:50.031Z,1.36
2017-11-30T03:34:54.526Z,1.48
2017-11-30T03:40:58.048Z,1.56
2017-11-30T03:47:02.537Z,1.52
2017-11-30T03:53:06.633Z,1.60
2017-11-30T03:59:10.277Z,1.65
2017-11-30T04:05:13.802Z,1.71
2017-11-30T04:11:17.332Z,1.70
2017-11-30T04:17:21.154Z,1.76
2017-11-30T04:23:24.919Z,1.78
2017-11-30T04:29:28.664Z,1.78
2017-11-30T04:35:32.216Z,1.80
2017-11-30T04:41:35.736Z,1.84
2017-11-30T04:47:39.311Z,1.79
2017-11-30T04:53:42.841Z,1.78
2017-11-30T04:59:46.629Z,1.81
2017-11-30T05:05:50.197Z,1.87
2017-11-30T05:11:54.555Z,1.88
2017-11-30T05:17:58.301Z,1.77
2017-11-30T05:24:01.913Z,1.82
2017-11-30T05:30:05.627Z,1.72
2017-11-30T05:36:10.040Z,1.59
2017-11-30T05:42:13.600Z,1.47
2017-11-30T05:48:17.965Z,1.42
2017-11-30T05:54:22.116Z,1.41
2017-11-30T06:00:25.720Z,1.47
2017-11-30T06:06:30.008Z,1.43
2017-11-30T06:12:33.532Z,1.41
2017-11-30T06:18:37.196Z,1.36
2017-11-30T06:24:40.752Z,1.36
2017-11-30T06:30:45.023Z,1.34
2017-11-30T06:36:49.302Z,1.31
2017-11-30T06:42:53.619Z,1.29
2017-11-30T06:48:57.157Z,1.26
2017-11-30T06:55:01.271Z,1.22
2017-11-30T07:01:05.016Z,1.23
2017-11-30T07:07:08.542Z,1.18
2017-11-30T07:13:12.055Z,1.17
2017-11-30T07:19:16.373Z,1.17
2017-11-30T07:25:19.931Z,1.21
2017-11-30T07:31:23.720Z,1.11
2017-11-30T07:37:27.315Z,1.13
2017-11-30T07:43:31.708Z,1.19
2017-11-30T07:49:35.292Z,1.21
2017-11-30T07:55:38.798Z,1.31
2017-11-30T08:01:43.110Z,1.28
2017-11-30T08:07:46.663Z,1.17
2017-11-30T08:13:50.204Z,1.14
2017-11-30T08:19:53.996Z,1.21
2017-11-30T08:25:57.578Z,1.24
2017-11-30T08:32:01.087Z,1.22
2017-11-30T08:38:04.624Z,1.34
2017-11-30T08:44:08.142Z,1.30
2017-11-30T08:50:11.697Z,1.38
2017-11-30T08:56:15.225Z,1.42
2017-11-30T09:02:18.750Z,1.50
2017-11-30T09:08:22.332Z,1.59
2017-11-30T09:14:26.108Z,1.71
2017-11-30T09:20:29.773Z,1.74
2017-11-30T09:26:34.075Z,1.81
2017-11-30T09:32:38.385Z,1.90
2017-11-30T09:38:41.926Z,1.78
2017-11-30T09:44:45.449Z,1.79
2017-11-30T09:50:49.907Z,1.89
2017-11-30T09:56:54.243Z,1.98
2017-11-30T10:02:57.948Z,2.20
2017-11-30T10:09:02.264Z,2.24
2017-11-30T10:15:05.941Z,2.40
2017-11-30T10:21:09.481Z,2.36
2017-11-30T10:27:12.991Z,2.51
2017-11-30T10:33:17.293Z,2.59
2017-11-30T10:39:20.992Z,2.56
2017-11-30T10:45:25.345Z,2.47
2017-11-30T10:51:28.857Z,2.57
2017-11-30T10:57:33.153Z,2.75
2017-11-30T11:03:36.677Z,2.73
2017-11-30T11:09:40.195Z,2.67
2017-11-30T11:15:43.714Z,2.73
2017-11-30T11:21:47.220Z,2.72
2017-11-30T11:27:50.884Z,2.69
2017-11-30T11:33:55.269Z,2.85
2017-11-30T11:39:58.798Z,2.93
2017-11-30T11:46:02.623Z,2.96
2017-11-30T11:52:06.184Z,2.79
2017-11-30T11:58:09.734Z,2.65
2017-11-30T12:04:13.289Z,2.70
2017-11-30T12:10:16.807Z,2.70
2017-11-30T12:16:21.171Z,2.86
2017-11-30T12:22:24.694Z,3.01
2017-11-30T12:28:28.544Z,3.04
2017-11-30T12:34:32.207Z,2.99
2017-11-30T12:40:35.735Z,2.79
2017-11-30T12:46:39.292Z,2.80
2017-11-30T12:52:42.816Z,2.74
2017-11-30T12:58:46.342Z,2.84
2017-11-30T13:04:49.870Z,2.73
2017-11-30T13:10:54.182Z,2.74
2017-11-30T13:16:57.835Z,2.71
2017-11-30T13:23:01.407Z,2.53
2017-11-30T13:29:05.007Z,2.45
2017-11-30T13:35:08.548Z,2.49
2017-11-30T13:41:12.872Z,2.35
2017-11-30T13:47:16.422Z,2.33
2017-11-30T13:53:20.066Z,2.36
2017-11-30T13:59:24.311Z,2.34
2017-11-30T14:05:28.191Z,2.32
2017-11-30T14:11:31.769Z,2.28
2017-11-30T14:17:35.315Z,2.23
2017-11-30T14:23:39.015Z,2.20
2017-11-30T14:29:42.654Z,2.22
2017-11-30T14:35:46.156Z,2.14
2017-11-30T14:41:49.729Z,1.97
2017-11-30T14:47:53.485Z,1.81
2017-11-30T14:53:57.950Z,1.74
2017-11-30T15:00:02.530Z,1.64
2017-11-30T15:06:06.149Z,1.54
2017-11-30T15:12:09.681Z,1.56
2017-11-30T15:18:13.254Z,1.45
2017-11-30T15:24:16.794Z,1.46
2017-11-30T15:30:21.372Z,1.30
2017-11-30T15:36:25.116Z,1.04
2017-11-30T15:42:28.634Z,0.93
2017-11-30T15:48:32.969Z,0.96
2017-11-30T15:54:36.506Z,1.00
2017-11-30T16:00:40.150Z,1.07
2017-11-30T16:06:43.810Z,1.10
2017-11-30T16:12:47.366Z,1.17
2017-11-30T16:18:50.935Z,1.26
2017-11-30T16:24:55.003Z,1.24
2017-11-30T16:30:58.541Z,1.25
2017-11-30T16:37:02.178Z,1.35
2017-11-30T16:43:05.682Z,1.33
2017-11-30T16:49:09.211Z,1.36
2017-11-30T16:55:12.718Z,1.47
2017-11-30T17:01:16.248Z,1.45
2017-11-30T17:07:19.808Z,1.43
2017-11-30T17:13:23.817Z,1.48
2017-11-30T17:19:27.432Z,1.46
2017-11-30T17:25:31.791Z,1.43
2017-11-30T17:31:35.306Z,1.43
2017-11-30T17:37:39.024Z,1.42
2017-11-30T17:43:42.849Z,1.40
2017-11-30T17:49:46.922Z,1.31
2017-11-30T17:55:50.503Z,1.37
2017-11-30T18:01:54.224Z,1.36
2017-11-30T18:07:57.810Z,1.40
2017-11-30T18:14:01.638Z,1.35
2017-11-30T18:20:05.288Z,1.29
2017-11-30T18:26:08.823Z,1.22
2017-11-30T18:32:12.356Z,1.18
2017-11-30T18:38:15.965Z,1.20
2017-11-30T18:44:20.063Z,1.12
2017-11-30T18:50:23.913Z,1.17
2017-11-30T18:56:27.481Z,1.18
2017-11-30T19:02:31.776Z,1.21
2017-11-30T19:08:35.297Z,1.28
2017-11-30T19:14:38.841Z,1.29
2017-11-30T19:20:42.347Z,1.26
2017-11-30T19:26:45.866Z,1.26
2017-11-30T19:32:49.396Z,1.27
2017-11-30T19:38:53.725Z,1.25
2017-11-30T19:44:57.258Z,1.21
2017-11-30T19:51:00.986Z,1.30
2017-11-30T19:57:05.243Z,1.26
2017-11-30T20:03:08.778Z,1.30
2017-11-30T20:09:13.185Z,1.39
2017-11-30T20:15:16.778Z,1.44
2017-11-30T20:21:20.363Z,1.43
2017-11-30T20:27:24.844Z,1.43
2017-11-30T20:33:29.265Z,1.49
2017-11-30T20:39:32.822Z,1.53
2017-11-30T20:45:36.369Z,1.56
2017-11-30T20:51:39.967Z,1.64
2017-11-30T20:57:43.503Z,1.63
2017-11-30T21:03:47.214Z,1.58
2017-11-30T21:09:50.867Z,1.61
2017-11-30T21:15:55.169Z,1.68
2017-11-30T21:21:58.711Z,1.66
2017-11-30T21:28:02.234Z,1.65
2017-11-30T21:34:05.785Z,1.63
2017-11-30T21:40:10.095Z,1.64
2017-11-30T21:46:13.753Z,1.60
2017-11-30T21:52:17.268Z,1.60
2017-11-30T21:58:21.499Z,1.57
2017-11-30T22:04:25.847Z,1.58
2017-11-30T22:10:29.517Z,1.62
2017-11-30T22:16:33.100Z,1.82
2017-11-30T22:22:37.308Z,1.73
2017-11-30T22:28:41.596Z,1.59
2017-11-30T22:34:45.130Z,1.50
2017-11-30T22:40:49.494Z,1.44
2017-11-30T22:46:53.954Z,1.54
2017-11-30T22:52:57.866Z,1.49
2017-11-30T22:59:01.540Z,1.63
2017-11-30T23:05:05.450Z,1.69
2017-11-30T23:11:08.973Z,1.66
2017-11-30T23:17:12.498Z,1.56
2017-11-30T23:23:17.069Z,1.52
2017-11-30T23:29:21.572Z,1.59
2017-11-30T23:35:25.273Z,1.58
2017-11-30T23:41:28.811Z,1.59
2017-11-30T23:47:32.458Z,1.61
2017-11-30T23:53:36.200Z,1.66
2017-11-30T23:59:40.070Z,1.72
